Time;durP1;ratioP1;P1;durP2;ratioP2;P2;SDS_P1;SDS_P2;PMS_P1;PMS_P2;Temp;Humidity;BMP_temperature;BMP_pressure;BME280_temperature;BME280_humidity;BME280_pressure;Samples;Min_cycle;Max_cycle;Signal;HPM_P1;HPM_P2
2021/01/11 00:01:31;;;;;;;44.18;19.65;;;;;;;0.98;85.49;100930.11;120688;1150;23464;-75
2021/01/11 00:04:01;;;;;;;48.42;19.35;;;;;;;0.95;85.23;100932.88;120681;1150;23098;-76
2021/01/11 00:06:36;;;;;;;44.53;18.10;;;;;;;0.93;85.60;100922.28;120752;1148;26059;-77
2021/01/11 00:09:07;;;;;;;50.80;20.90;;;;;;;0.92;85.40;100926.20;120618;1148;22958;-76
2021/01/11 00:11:38;;;;;;;48.37;19.87;;;;;;;0.89;85.54;100928.97;120704;1150;22988;-75
2021/01/11 00:14:08;;;;;;;50.50;20.93;;;;;;;0.87;85.69;100931.33;120619;1149;22888;-76
2021/01/11 00:16:38;;;;;;;47.23;22.20;;;;;;;0.83;85.01;100921.12;120616;1150;22950;-76
2021/01/11 00:19:08;;;;;;;81.42;36.98;;;;;;;0.76;85.45;100921.16;120690;1150;23112;-76
2021/01/11 00:21:37;;;;;;;97.67;44.03;;;;;;;0.74;85.52;100919.97;120625;1150;27322;-77
2021/01/11 00:24:08;;;;;;;103.55;46.55;;;;;;;0.71;85.71;100918.00;120781;1148;26758;-75
2021/01/11 00:26:39;;;;;;;98.07;45.00;;;;;;;0.67;85.16;100918.02;120990;1148;23064;-76
2021/01/11 00:29:09;;;;;;;94.50;42.13;;;;;;;0.64;85.08;100926.28;120715;1150;23073;-76
2021/01/11 00:31:40;;;;;;;92.33;42.27;;;;;;;0.58;84.97;100925.88;120722;1148;23100;-76
2021/01/11 00:34:10;;;;;;;87.93;36.83;;;;;;;0.54;85.28;100925.09;120662;1150;23057;-76
2021/01/11 00:36:45;;;;;;;78.60;33.40;;;;;;;0.49;85.40;100925.52;120735;1148;23055;-76
2021/01/11 00:39:15;;;;;;;74.70;32.07;;;;;;;0.45;85.55;100930.23;120797;1148;22959;-77
2021/01/11 00:41:45;;;;;;;64.05;28.25;;;;;;;0.41;84.93;100931.41;120701;1150;26641;-75
2021/01/11 00:44:15;;;;;;;68.85;27.27;;;;;;;0.37;84.95;100928.67;120777;1150;22952;-76
2021/01/11 00:46:45;;;;;;;57.70;26.95;;;;;;;0.33;84.66;100929.84;120741;1148;22922;-76
2021/01/11 00:49:15;;;;;;;61.68;25.32;;;;;;;0.31;84.62;100927.47;120706;1148;23025;-76
2021/01/11 00:51:46;;;;;;;58.80;24.50;;;;;;;0.24;84.72;100930.23;120645;1148;23534;-75
2021/01/11 00:54:15;;;;;;;58.77;23.37;;;;;;;0.19;85.09;100941.59;120690;1148;23040;-75
2021/01/11 00:56:46;;;;;;;51.70;23.20;;;;;;;0.18;85.24;100940.04;120763;1150;22969;-76
2021/01/11 00:59:16;;;;;;;55.78;23.35;;;;;;;0.13;85.56;100943.16;120849;1148;22951;-75
2021/01/11 01:01:50;;;;;;;59.47;25.07;;;;;;;0.08;85.04;100943.57;120885;1148;26347;-76
2021/01/11 01:04:21;;;;;;;61.57;24.67;;;;;;;0.02;85.37;100952.58;120799;1148;23180;-76
2021/01/11 01:06:49;;;;;;;;;;;;;;;-0.01;85.49;100949.44;120805;1148;23083;-76
2021/01/11 01:09:19;;;;;;;69.23;26.63;;;;;;;-0.04;85.53;100949.41;120787;1150;24221;-76
2021/01/11 01:11:49;;;;;;;69.00;28.12;;;;;;;-0.04;85.61;100949.41;120852;1148;23016;-75
2021/01/11 01:14:19;;;;;;;64.87;26.65;;;;;;;-0.04;86.43;100949.41;120822;1148;22949;-76
2021/01/11 01:16:49;;;;;;;71.95;27.45;;;;;;;-0.07;85.77;100945.51;120790;1148;23003;-75
2021/01/11 01:19:19;;;;;;;73.75;29.57;;;;;;;-0.06;86.09;100951.77;120787;1148;22934;-75
2021/01/11 01:21:49;;;;;;;74.10;29.52;;;;;;;-0.06;86.46;100943.53;120747;1148;23164;-76
2021/01/11 01:24:18;;;;;;;70.33;28.43;;;;;;;-0.06;85.68;100951.77;120773;1148;23038;-76
2021/01/11 01:26:48;;;;;;;71.30;27.35;;;;;;;-0.07;85.75;100950.20;120725;1148;22886;-75
2021/01/11 01:29:18;;;;;;;61.63;24.95;;;;;;;-0.09;86.36;100942.37;120719;1148;22992;-76
2021/01/11 01:31:48;;;;;;;63.40;26.40;;;;;;;-0.12;85.82;100943.14;120692;1148;22938;-75
2021/01/11 01:34:18;;;;;;;65.00;25.90;;;;;;;-0.13;85.70;100946.28;120693;1148;23038;-76
2021/01/11 01:36:48;;;;;;;67.95;25.32;;;;;;;-0.11;86.56;100949.42;120535;1148;22981;-76
2021/01/11 01:39:18;;;;;;;61.70;25.57;;;;;;;-0.14;86.25;100937.25;120909;1148;22952;-76
2021/01/11 01:41:48;;;;;;;60.35;22.90;;;;;;;-0.14;85.97;100945.48;120753;1148;24547;-76
2021/01/11 01:44:18;;;;;;;62.70;25.10;;;;;;;-0.15;86.42;100938.45;120722;1148;22997;-76
2021/01/11 01:46:49;;;;;;;71.28;27.02;;;;;;;-0.12;86.42;100942.34;120750;1148;22929;-76
2021/01/11 01:49:19;;;;;;;63.85;24.27;;;;;;;-0.14;86.47;100933.72;120788;1148;22950;-77
2021/01/11 01:51:49;;;;;;;62.50;24.90;;;;;;;-0.16;85.51;100938.81;120790;1148;22923;-76
2021/01/11 01:54:19;;;;;;;61.63;23.20;;;;;;;-0.17;86.53;100931.77;120792;1150;22921;-75
2021/01/11 01:56:49;;;;;;;62.15;24.80;;;;;;;-0.17;86.12;100934.52;120758;1148;22923;-76
2021/01/11 01:59:21;;;;;;;68.42;25.70;;;;;;;-0.20;86.53;100929.79;120821;1148;22945;-76
2021/01/11 02:01:55;;;;;;;64.37;25.57;;;;;;;-0.20;86.44;100929.79;120912;1148;22928;-76
2021/01/11 02:04:25;;;;;;;63.30;24.43;;;;;;;-0.19;86.17;100926.65;120789;1148;23940;-75
2021/01/11 02:07:00;;;;;;;64.30;24.47;;;;;;;-0.15;86.67;100929.42;120777;1148;23436;-76
2021/01/11 02:09:43;;;;;;;61.80;23.97;;;;;;;-0.15;85.86;100929.42;120765;1148;23303;-75
2021/01/11 02:12:20;;;;;;;60.53;23.47;;;;;;;-0.16;85.69;100928.63;120666;1148;22930;-76
2021/01/11 02:15:03;;;;;;;60.83;23.33;;;;;;;-0.14;86.46;100928.23;120711;1148;22923;-76
2021/01/11 02:17:38;;;;;;;57.77;22.03;;;;;;;-0.10;86.15;100932.55;120620;1148;22981;-78
2021/01/11 02:20:51;;;;;;;52.47;20.40;;;;;;;-0.08;86.27;100921.97;120755;1148;22923;-76
2021/01/11 02:24:05;;;;;;;61.95;24.80;;;;;;;-0.08;85.75;100924.72;120284;1151;22948;-76
2021/01/11 02:26:54;;;;;;;61.45;22.30;;;;;;;-0.11;85.64;100917.28;120358;1151;22939;-76
2021/01/11 02:29:42;;;;;;;57.93;23.03;;;;;;;-0.11;86.16;100920.02;120395;1151;22960;-76
2021/01/11 02:32:14;;;;;;;60.73;24.37;;;;;;;-0.08;85.95;100913.73;120383;1151;22930;-76
2021/01/11 02:34:47;;;;;;;57.05;22.40;;;;;;;-0.04;85.76;100919.22;120407;1151;22971;-76
2021/01/11 02:37:17;;;;;;;54.93;22.50;;;;;;;-0.04;86.08;100913.73;120399;1151;22971;-76
2021/01/11 02:39:48;;;;;;;55.10;22.05;;;;;;;-0.04;85.60;100905.50;120400;1149;24361;-75
2021/01/11 02:42:18;;;;;;;53.17;21.37;;;;;;;-0.04;85.91;100906.28;120356;1150;24744;-76
2021/01/11 02:44:48;;;;;;;59.33;21.23;;;;;;;-0.04;85.45;100905.50;120383;1151;23125;-76
2021/01/11 02:47:27;;;;;;;57.60;22.52;;;;;;;-0.03;85.99;100902.38;120377;1151;22920;-76
2021/01/11 02:50:00;;;;;;;58.93;22.77;;;;;;;-0.05;85.65;100906.69;120466;1151;22951;-76
2021/01/11 02:52:40;;;;;;;52.37;22.47;;;;;;;-0.07;84.77;100907.09;120362;1151;22929;-76
2021/01/11 02:55:16;;;;;;;58.95;21.80;;;;;;;-0.11;84.45;100906.30;120359;1151;23040;-76
2021/01/11 02:57:56;;;;;;;57.20;23.17;;;;;;;-0.15;84.61;100900.02;120442;1151;24595;-76
2021/01/11 03:00:26;;;;;;;60.12;22.93;;;;;;;-0.17;85.14;100891.40;120802;1148;23021;-76
2021/01/11 03:02:57;;;;;;;;;;;;;;;-0.21;84.94;100892.56;120791;1150;25915;-76
2021/01/11 03:05:29;;;;;;;56.80;21.45;;;;;;;-0.25;84.28;100889.03;121007;1150;21579;-76
2021/01/11 03:08:00;;;;;;;51.00;20.45;;;;;;;-0.27;84.56;100885.90;120692;1148;23032;-77
2021/01/11 03:10:30;;;;;;;54.87;23.20;;;;;;;-0.30;84.25;100886.66;120767;1148;22934;-75
2021/01/11 03:13:00;;;;;;;53.08;21.05;;;;;;;-0.37;84.75;100873.72;120890;1148;27232;-75
2021/01/11 03:15:30;;;;;;;52.10;22.02;;;;;;;-0.39;85.05;100876.06;120775;1150;22935;-76
2021/01/11 03:18:00;;;;;;;59.40;22.60;;;;;;;-0.43;84.32;100874.48;120746;1148;24422;-75
2021/01/11 03:20:30;;;;;;;56.63;22.60;;;;;;;-0.48;84.92;100874.88;120868;1150;28235;-76
2021/01/11 03:23:01;;;;;;;61.73;23.22;;;;;;;-0.52;84.42;100869.41;120789;1148;23589;-75
2021/01/11 03:25:31;;;;;;;53.55;21.20;;;;;;;-0.52;84.90;100866.66;120967;1148;24498;-76
2021/01/11 03:28:03;;;;;;;54.15;21.57;;;;;;;-0.55;84.52;100864.68;120777;1150;22898;-76
2021/01/11 03:30:32;;;;;;;57.13;22.03;;;;;;;-0.58;83.77;100864.68;120756;1148;22913;-76
2021/01/11 03:33:02;;;;;;;58.38;23.15;;;;;;;-0.64;83.87;100861.52;120904;1148;23080;-76
2021/01/11 03:35:32;;;;;;;58.85;23.55;;;;;;;-0.69;83.65;100863.86;120828;1148;22900;-76
2021/01/11 03:38:02;;;;;;;58.60;22.02;;;;;;;-0.73;84.91;100869.34;120731;1148;22979;-75
2021/01/11 03:40:33;;;;;;;55.88;22.48;;;;;;;-0.73;85.14;100855.63;120785;1148;22927;-75
2021/01/11 03:43:02;;;;;;;51.33;22.05;;;;;;;-0.74;85.04;100853.26;120786;1148;22948;-76
2021/01/11 03:45:32;;;;;;;55.50;21.83;;;;;;;-0.73;85.12;100857.59;120796;1148;24664;-76
2021/01/11 03:48:02;;;;;;;64.62;26.05;;;;;;;-0.75;85.02;100855.23;120773;1148;23025;-75
2021/01/11 03:50:32;;;;;;;62.88;23.57;;;;;;;-0.77;85.08;100854.05;120778;1148;22894;-76
2021/01/11 03:53:02;;;;;;;59.57;23.93;;;;;;;-0.80;84.91;100850.12;120798;1150;23040;-76
2021/01/11 03:55:32;;;;;;;63.67;24.93;;;;;;;-0.83;84.51;100842.69;120819;1148;22942;-76
2021/01/11 03:58:02;;;;;;;63.90;24.67;;;;;;;-0.89;84.64;100847.73;120863;1148;22945;-76
2021/01/11 04:00:32;;;;;;;62.25;25.60;;;;;;;-0.91;83.67;100857.55;120822;1148;23025;-76
2021/01/11 04:03:01;;;;;;;63.95;25.23;;;;;;;-0.95;83.93;100840.28;120850;1148;27222;-76
2021/01/11 04:05:33;;;;;;;67.87;25.32;;;;;;;-0.98;84.32;100844.59;120803;1148;24499;-76
2021/01/11 04:08:03;;;;;;;63.30;24.70;;;;;;;-0.99;84.67;100828.52;120782;1149;27276;-75
2021/01/11 04:10:35;;;;;;;65.50;25.53;;;;;;;-1.01;84.84;100834.39;120808;1148;23009;-76
2021/01/11 04:13:05;;;;;;;67.53;24.47;;;;;;;-1.04;84.41;100843.41;120810;1148;23048;-76
2021/01/11 04:15:36;;;;;;;63.53;25.13;;;;;;;-1.10;83.27;100844.95;120770;1148;23008;-75
2021/01/11 04:18:06;;;;;;;72.33;28.03;;;;;;;-1.17;84.04;100838.64;120886;1148;26045;-75
2021/01/11 04:20:36;;;;;;;57.13;24.95;;;;;;;-1.21;84.05;100837.84;120834;1148;23093;-75
2021/01/11 04:23:07;;;;;;;67.63;27.13;;;;;;;-1.21;84.90;100838.63;120774;1150;23006;-76
2021/01/11 04:25:38;;;;;;;62.57;25.80;;;;;;;-1.21;84.65;100837.84;120902;1149;22948;-76
2021/01/11 04:28:07;;;;;;;62.88;26.42;;;;;;;-1.21;84.48;100833.16;120740;1148;23015;-76
2021/01/11 04:30:38;;;;;;;72.80;26.97;;;;;;;-1.23;84.34;100831.96;120775;1148;22962;-76
2021/01/11 04:33:09;;;;;;;68.77;27.17;;;;;;;-1.26;84.04;100827.27;120879;1148;22947;-76
2021/01/11 04:35:39;;;;;;;70.22;27.32;;;;;;;-1.29;83.77;100828.02;120853;1148;24555;-76
2021/01/11 04:38:09;;;;;;;71.45;27.48;;;;;;;-1.32;83.53;100826.05;120825;1148;23027;-76
2021/01/11 04:40:39;;;;;;;71.85;28.27;;;;;;;-1.35;83.68;100826.83;120852;1148;22956;-75
2021/01/11 04:43:15;;;;;;;69.42;29.15;;;;;;;-1.36;84.86;100817.81;120806;1150;23103;-76
2021/01/11 04:45:46;;;;;;;67.07;26.23;;;;;;;-1.37;84.10;100818.20;121054;1148;22954;-76
2021/01/11 04:48:17;;;;;;;72.73;29.40;;;;;;;-1.39;84.75;100824.08;120849;1148;22923;-76
2021/01/11 04:50:47;;;;;;;74.60;30.93;;;;;;;-1.41;84.21;100822.89;120772;1148;22923;-76
2021/01/11 04:53:20;;;;;;;75.70;33.73;;;;;;;-1.42;83.88;100826.78;120826;1148;22945;-76
2021/01/11 04:55:50;;;;;;;84.17;33.80;;;;;;;-1.45;84.15;100828.36;120827;1148;23034;-75
2021/01/11 04:58:22;;;;;;;82.53;33.55;;;;;;;-1.52;83.28;100822.04;120772;1148;22949;-75
2021/01/11 05:00:59;;;;;;;87.55;36.00;;;;;;;-1.60;83.71;100821.23;120816;1148;22980;-76
2021/01/11 05:03:30;;;;;;;83.87;33.70;;;;;;;-1.64;84.00;100834.11;121006;1148;22946;-75
2021/01/11 05:06:00;;;;;;;90.13;33.20;;;;;;;-1.68;83.44;100828.59;120928;1148;22913;-76
2021/01/11 05:08:31;;;;;;;83.33;30.10;;;;;;;-1.70;84.15;100824.69;120860;1148;26101;-76
2021/01/11 05:11:02;;;;;;;79.57;31.50;;;;;;;-1.71;83.83;100818.42;120822;1148;26507;-76
2021/01/11 05:13:32;;;;;;;80.12;30.55;;;;;;;-1.71;84.82;100815.69;120818;1148;22913;-76
2021/01/11 05:16:12;;;;;;;88.27;32.65;;;;;;;-1.69;84.76;100813.35;120768;1148;22968;-76
2021/01/11 05:18:43;;;;;;;82.70;31.77;;;;;;;-1.70;84.59;100816.48;120849;1148;22972;-75
2021/01/11 05:21:37;;;;;;;83.75;32.13;;;;;;;-1.70;84.24;100821.95;120772;1148;24310;-76
2021/01/11 05:24:29;;;;;;;80.03;32.77;;;;;;;-1.70;84.26;100819.98;120806;1148;22937;-75
2021/01/11 05:27:01;;;;;;;74.40;32.00;;;;;;;-1.70;84.75;100816.48;120827;1148;23069;-76
2021/01/11 05:29:31;;;;;;;75.57;31.07;;;;;;;-1.70;84.40;100813.74;120799;1148;24554;-76
2021/01/11 05:32:03;;;;;;;69.58;28.98;;;;;;;-1.73;83.47;100815.28;121086;1150;22931;-75
2021/01/11 05:34:47;;;;;;;77.30;29.93;;;;;;;-1.78;83.51;100814.88;120748;1148;23030;-75
2021/01/11 05:37:32;;;;;;;77.73;30.63;;;;;;;-1.89;82.88;100820.27;120806;1148;23059;-76
2021/01/11 05:40:08;;;;;;;73.27;29.43;;;;;;;-1.93;83.02;100826.88;120753;1148;23389;-75
2021/01/11 05:42:39;;;;;;;78.70;29.90;;;;;;;-1.98;83.78;100814.34;120959;1148;28503;-75
2021/01/11 05:45:16;;;;;;;78.30;28.97;;;;;;;-1.99;82.93;100820.98;121007;1148;22918;-77
2021/01/11 05:47:58;;;;;;;72.23;31.83;;;;;;;-2.04;83.73;100828.75;120880;1148;22936;-75
2021/01/11 05:50:31;;;;;;;70.50;29.20;;;;;;;-2.02;83.78;100820.94;120889;1148;22926;-76
2021/01/11 05:53:01;;;;;;;70.50;31.45;;;;;;;-2.00;84.35;100818.61;120760;1148;27094;-76
2021/01/11 05:55:33;;;;;;;76.23;30.50;;;;;;;-1.99;84.59;100812.78;120866;1148;22922;-76
2021/01/11 05:58:04;;;;;;;78.43;32.33;;;;;;;-1.99;83.61;100820.20;120963;1148;23010;-75
2021/01/11 06:00:36;;;;;;;76.70;32.00;;;;;;;-2.01;83.90;100817.84;120790;1148;22910;-79
2021/01/11 06:03:07;;;;;;;77.05;30.80;;;;;;;-2.04;83.42;100812.33;120845;1148;23052;-76
2021/01/11 06:05:38;;;;;;;82.27;35.23;;;;;;;-2.08;84.14;100814.26;120856;1148;22954;-76
2021/01/11 06:08:10;;;;;;;80.97;33.75;;;;;;;-2.12;83.79;100819.71;120911;1148;22955;-76
2021/01/11 06:10:41;;;;;;;87.30;36.50;;;;;;;-2.13;84.16;100817.37;120797;1148;23361;-76
2021/01/11 06:13:12;;;;;;;82.20;33.67;;;;;;;-2.15;84.27;100819.70;120914;1148;23353;-76
2021/01/11 06:15:43;;;;;;;76.47;31.97;;;;;;;-2.13;84.66;100820.09;120853;1148;22918;-76
2021/01/11 06:18:13;;;;;;;74.25;32.10;;;;;;;-2.14;83.96;100822.05;120953;1148;22941;-76
2021/01/11 06:20:46;;;;;;;73.85;30.10;;;;;;;-2.18;83.40;100823.97;120899;1148;27088;-76
2021/01/11 06:23:27;;;;;;;71.00;29.80;;;;;;;-2.19;83.69;100829.83;120859;1148;27260;-76
2021/01/11 06:25:58;;;;;;;71.00;30.40;;;;;;;-2.18;84.15;100831.38;120767;1148;22927;-76
2021/01/11 06:28:35;;;;;;;84.83;33.37;;;;;;;-2.17;84.62;100838.44;120840;1148;24750;-76
2021/01/11 06:31:12;;;;;;;80.00;32.50;;;;;;;-2.18;83.85;100834.11;120729;1148;22944;-76
2021/01/11 06:33:43;;;;;;;69.63;31.03;;;;;;;-2.16;84.73;100835.31;120998;1148;27202;-77
2021/01/11 06:36:23;;;;;;;86.27;32.70;;;;;;;-2.15;83.95;100825.16;120981;1148;22921;-76
2021/01/11 06:38:54;;;;;;;83.83;35.07;;;;;;;-2.17;83.56;100822.79;121072;1148;22860;-76
2021/01/11 06:41:29;;;;;;;80.20;33.97;;;;;;;-2.18;84.30;100829.44;120943;1148;22979;-77
2021/01/11 06:44:05;;;;;;;80.57;31.80;;;;;;;-2.19;83.95;100821.62;120930;1148;22934;-77
2021/01/11 06:46:45;;;;;;;75.07;31.47;;;;;;;-2.18;84.40;100817.70;121057;1148;24605;-76
2021/01/11 06:49:30;;;;;;;76.77;32.63;;;;;;;-2.21;84.00;100824.71;121071;1148;26353;-77
2021/01/11 06:52:09;;;;;;;72.13;27.93;;;;;;;-2.24;84.07;100821.95;121082;1148;24491;-77
2021/01/11 06:54:45;;;;;;;71.67;28.53;;;;;;;-2.24;83.67;100825.48;121180;1148;23033;-76
2021/01/11 06:57:24;;;;;;;69.10;26.47;;;;;;;-2.24;83.74;100822.75;121004;1148;23921;-77
2021/01/11 06:59:56;;;;;;;67.83;27.50;;;;;;;-2.25;84.46;100829.37;121128;1148;23163;-76
2021/01/11 07:02:27;;;;;;;75.50;28.90;;;;;;;-2.25;84.12;100825.84;121448;1148;23054;-77
2021/01/11 07:04:59;;;;;;;67.50;28.80;;;;;;;-2.28;83.50;100830.14;121036;1148;23020;-76
2021/01/11 07:07:30;;;;;;;68.23;27.00;;;;;;;-2.30;83.46;100831.67;120974;1148;23005;-76
2021/01/11 07:10:02;;;;;;;64.13;25.80;;;;;;;-2.32;84.28;100832.06;120989;1148;27379;-76
2021/01/11 07:12:33;;;;;;;66.20;26.30;;;;;;;-2.34;84.25;100839.86;121114;1148;22922;-79
2021/01/11 07:15:07;;;;;;;70.25;25.75;;;;;;;-2.34;83.34;100850.00;121136;1150;23076;-77
2021/01/11 07:17:41;;;;;;;65.63;25.43;;;;;;;-2.35;83.44;100849.20;121088;1148;23160;-79
2021/01/11 07:20:15;;;;;;;62.60;24.97;;;;;;;-2.40;84.11;100844.07;121135;1148;23399;-78
2021/01/11 07:22:47;;;;;;;60.23;24.07;;;;;;;-2.43;83.61;100854.98;121023;1148;23090;-77
2021/01/11 07:25:22;;;;;;;62.43;24.27;;;;;;;-2.43;84.35;100850.31;120961;1148;23163;-77
2021/01/11 07:27:57;;;;;;;63.57;25.23;;;;;;;-2.44;83.83;100851.45;121165;1148;22930;-77
2021/01/11 07:30:27;;;;;;;61.30;23.30;;;;;;;-2.45;84.35;100855.38;121016;1148;22930;-79
2021/01/11 07:32:57;;;;;;;63.48;25.30;;;;;;;-2.46;83.22;100860.05;120861;1148;27631;-78
2021/01/11 07:35:27;;;;;;;68.87;25.43;;;;;;;-2.44;84.25;100858.90;120890;1148;22922;-78
2021/01/11 07:37:57;;;;;;;71.90;29.07;;;;;;;-2.46;83.59;100857.31;120891;1148;23024;-79
2021/01/11 07:40:27;;;;;;;73.62;30.37;;;;;;;-2.49;83.55;100858.08;120898;1148;23019;-78
2021/01/11 07:42:57;;;;;;;80.85;29.72;;;;;;;-2.50;83.77;100848.30;120899;1148;22943;-79
2021/01/11 07:45:26;;;;;;;83.45;32.45;;;;;;;-2.50;83.25;100848.30;121045;1148;28430;-78
2021/01/11 07:47:57;;;;;;;86.10;33.15;;;;;;;-2.48;84.11;100847.91;121084;1148;27205;-78
2021/01/11 07:50:30;;;;;;;94.17;34.87;;;;;;;-2.46;84.09;100851.84;121099;1148;22955;-78
2021/01/11 07:53:01;;;;;;;88.83;34.80;;;;;;;-2.47;83.81;100855.75;121114;1148;22978;-79
2021/01/11 07:55:34;;;;;;;;;;;;;;;-2.48;84.19;100856.91;121239;1148;26327;-78
2021/01/11 07:58:05;;;;;;;84.67;32.33;;;;;;;-2.45;84.07;100863.57;121165;1150;21998;-80
2021/01/11 08:00:35;;;;;;;81.23;32.10;;;;;;;-2.44;83.54;100856.92;121384;1148;23007;-79
2021/01/11 08:03:07;;;;;;;78.67;30.43;;;;;;;-2.43;83.93;100857.72;121033;1148;28701;-79
2021/01/11 08:05:37;;;;;;;80.03;32.07;;;;;;;-2.41;84.66;100852.66;121078;1148;22951;-80
2021/01/11 08:08:12;;;;;;;82.47;32.50;;;;;;;-2.43;83.97;100857.72;121436;1148;22927;-78
2021/01/11 08:10:42;;;;;;;82.40;33.65;;;;;;;-2.44;84.64;100856.16;121129;1148;22944;-78
2021/01/11 08:13:12;;;;;;;81.17;32.60;;;;;;;-2.43;84.77;100863.19;121114;1148;23589;-78
2021/01/11 08:15:51;;;;;;;92.20;35.83;;;;;;;-2.41;84.08;100869.86;121155;1151;23206;-79
2021/01/11 08:18:23;;;;;;;88.17;35.20;;;;;;;-2.40;84.37;100867.92;121103;1148;22981;-80
2021/01/11 08:21:04;;;;;;;83.35;33.90;;;;;;;-2.39;84.79;100873.00;121198;1150;22955;-80
2021/01/11 08:23:33;;;;;;;;;;;;;;;-2.40;85.01;100874.15;121049;1148;22919;-78
2021/01/11 08:26:06;;;;;;;88.20;36.13;;;;;;;-2.39;85.15;100870.27;121027;1150;22874;-78
2021/01/11 08:28:38;;;;;;;86.50;33.83;;;;;;;-2.38;85.09;100871.85;121125;1148;22943;-78
2021/01/11 08:31:08;;;;;;;96.13;38.13;;;;;;;-2.36;85.31;100866.80;120939;1148;24709;-78
2021/01/11 08:33:39;;;;;;;94.67;36.58;;;;;;;-2.34;84.88;100872.67;120959;1150;22979;-80
2021/01/11 08:36:23;;;;;;;86.90;36.80;;;;;;;-2.33;85.33;100870.70;121071;1148;23013;-78
2021/01/11 08:39:12;;;;;;;94.43;39.57;;;;;;;-2.31;85.02;100871.90;120999;1148;25899;-77
2021/01/11 08:41:47;;;;;;;102.43;38.50;;;;;;;-2.30;84.75;100868.02;121043;1148;23163;-78
2021/01/11 08:44:32;;;;;;;89.57;38.10;;;;;;;-2.26;85.20;100863.37;121062;1148;22934;-79
2021/01/11 08:47:07;;;;;;;92.95;36.95;;;;;;;-2.24;85.59;100863.77;121071;1148;22998;-78
2021/01/11 08:49:56;;;;;;;98.37;35.20;;;;;;;-2.20;84.98;100874.73;121037;1148;22966;-78
2021/01/11 08:52:31;;;;;;;98.80;37.57;;;;;;;-2.18;85.38;100864.99;121144;1148;23491;-79
2021/01/11 08:55:11;;;;;;;90.60;34.37;;;;;;;-2.14;85.00;100875.95;121100;1148;23192;-79
2021/01/11 08:57:41;;;;;;;88.73;37.60;;;;;;;-2.10;84.79;100863.09;121060;1148;22931;-79
2021/01/11 09:00:12;;;;;;;;;;;;;;;-2.07;85.07;100863.11;121125;1148;22948;-79
2021/01/11 09:02:47;;;;;;;87.65;35.65;;;;;;;-2.04;84.70;100872.52;121074;1148;21704;-78
2021/01/11 09:05:19;;;;;;;83.40;32.27;;;;;;;-2.01;85.00;100878.04;121077;1148;23034;-80
2021/01/11 09:07:49;;;;;;;86.60;35.90;;;;;;;-1.98;85.68;100880.00;121241;1148;23825;-78
2021/01/11 09:10:19;;;;;;;;;;;;;;;-1.96;84.88;100877.67;121360;1150;22892;-79
2021/01/11 09:12:50;;;;;;;91.10;32.90;;;;;;;-1.93;85.75;100878.88;121814;1149;21559;-80
2021/01/11 09:15:26;;;;;;;89.00;34.37;;;;;;;-1.92;85.21;100874.95;121718;1146;22922;-78
2021/01/11 09:18:08;;;;;;;90.60;36.23;;;;;;;-1.89;85.16;100874.21;121607;1148;22922;-80
2021/01/11 09:20:41;;;;;;;84.37;35.23;;;;;;;-1.85;85.02;100870.34;121142;1148;22955;-78
2021/01/11 09:23:12;;;;;;;87.87;37.67;;;;;;;-1.81;85.47;100873.09;121565;1148;23684;-78
2021/01/11 09:25:42;;;;;;;83.20;33.03;;;;;;;-1.76;85.48;100875.48;121239;1148;22958;-81
2021/01/11 09:28:12;;;;;;;88.17;35.58;;;;;;;-1.73;85.40;100866.50;121097;1148;22899;-81
2021/01/11 09:30:42;;;;;;;90.53;35.53;;;;;;;-1.71;85.57;100869.64;121179;1148;22927;-78
2021/01/11 09:33:12;;;;;;;92.77;37.43;;;;;;;-1.66;85.80;100861.08;121154;1148;22867;-79
2021/01/11 09:35:42;;;;;;;87.82;34.73;;;;;;;-1.62;85.45;100859.16;121287;1148;22920;-79
2021/01/11 09:38:12;;;;;;;89.75;37.88;;;;;;;-1.57;85.21;100856.03;121162;1148;22926;-78
2021/01/11 09:40:42;;;;;;;85.20;34.73;;;;;;;-1.53;85.22;100853.34;121252;1148;22921;-80
2021/01/11 09:43:12;;;;;;;85.80;34.88;;;;;;;-1.50;85.02;100853.35;121150;1148;23054;-80
2021/01/11 09:45:42;;;;;;;89.40;34.38;;;;;;;-1.46;85.80;100854.16;121176;1148;26095;-81
2021/01/11 09:48:13;;;;;;;85.03;35.13;;;;;;;-1.43;85.09;100858.88;121135;1148;23084;-79
2021/01/11 09:50:43;;;;;;;79.67;33.05;;;;;;;-1.40;85.34;100855.36;121173;1148;22926;-80
2021/01/11 09:53:12;;;;;;;90.75;35.70;;;;;;;-1.36;85.19;100853.42;121145;1148;22893;-79
2021/01/11 09:55:43;;;;;;;85.07;33.85;;;;;;;-1.32;86.04;100854.22;121057;1148;23953;-83
2021/01/11 09:58:17;;;;;;;78.20;32.60;;;;;;;-1.26;85.26;100854.66;121124;1148;22943;-79
2021/01/11 10:00:48;;;;;;;78.37;30.37;;;;;;;-1.23;85.68;100851.14;121711;1148;23844;-78
2021/01/11 10:03:18;;;;;;;72.77;28.93;;;;;;;-1.21;85.45;100846.84;121672;1107;22880;-77
2021/01/11 10:05:56;;;;;;;72.65;28.35;;;;;;;-1.17;85.08;100850.39;120979;1148;23024;-78
2021/01/11 10:08:26;;;;;;;68.63;26.67;;;;;;;-1.11;85.03;100850.80;121071;1148;22928;-76
2021/01/11 10:10:56;;;;;;;59.77;23.18;;;;;;;-1.08;84.91;100841.81;120982;1148;27083;-78
2021/01/11 10:13:26;;;;;;;63.35;22.75;;;;;;;-1.06;85.27;100842.21;120976;1148;22925;-76
2021/01/11 10:15:56;;;;;;;62.45;23.00;;;;;;;-1.02;84.92;100845.75;120811;1148;22948;-79
2021/01/11 10:18:26;;;;;;;59.35;23.45;;;;;;;-1.00;84.46;100840.67;120801;1148;22903;-76
2021/01/11 10:20:56;;;;;;;56.05;21.00;;;;;;;-0.99;84.90;100840.27;120747;1148;25032;-75
2021/01/11 10:23:26;;;;;;;57.13;20.80;;;;;;;-0.96;85.18;100838.72;120787;1148;26138;-76
2021/01/11 10:25:56;;;;;;;;;;;;;;;-0.93;84.92;100835.98;120819;1148;23550;-75
2021/01/11 10:28:27;;;;;;;54.37;19.90;;;;;;;-0.91;84.54;100832.88;120803;1149;21697;-76
2021/01/11 10:30:57;;;;;;;;;;;;;;;-0.87;84.41;100837.17;120806;1149;24877;-77
2021/01/11 10:33:27;;;;;;;57.67;21.60;;;;;;;-0.85;84.48;100829.34;120802;1148;21560;-77
2021/01/11 10:35:58;;;;;;;56.67;18.60;;;;;;;-0.83;84.69;100835.23;120771;1148;22948;-77
2021/01/11 10:38:28;;;;;;;52.62;19.48;;;;;;;-0.81;85.07;100830.14;120774;1148;22965;-77
2021/01/11 10:40:58;;;;;;;53.80;20.43;;;;;;;-0.77;84.93;100829.38;120697;1148;25705;-77
2021/01/11 10:43:30;;;;;;;55.43;21.45;;;;;;;-0.76;84.93;100826.23;120713;1148;22931;-75
2021/01/11 10:46:00;;;;;;;61.63;23.47;;;;;;;-0.71;84.60;100830.56;120747;1148;24674;-76
2021/01/11 10:48:30;;;;;;;62.10;21.27;;;;;;;-0.69;84.62;100819.98;120730;1148;23437;-80
2021/01/11 10:51:04;;;;;;;57.75;20.30;;;;;;;-0.65;85.02;100823.52;120662;1148;23649;-76
2021/01/11 10:53:36;;;;;;;52.37;18.90;;;;;;;-0.62;84.66;100815.30;121072;1148;25624;-77
2021/01/11 10:56:07;;;;;;;55.93;18.90;;;;;;;-0.60;84.27;100809.44;120796;1148;26076;-77
2021/01/11 10:58:38;;;;;;;50.60;19.10;;;;;;;-0.59;84.12;100809.05;120719;1148;25954;-76
2021/01/11 11:01:11;;;;;;;50.20;17.93;;;;;;;-0.56;83.87;100800.02;120820;1148;22943;-78
2021/01/11 11:03:41;;;;;;;49.77;17.07;;;;;;;-0.51;84.30;100798.85;121119;1148;22919;-77
2021/01/11 11:06:12;;;;;;;;;;;;;;;-0.48;83.88;100787.12;120989;1148;24361;-77
2021/01/11 11:08:42;;;;;;;60.70;18.40;;;;;;;-0.45;84.29;100792.59;120818;1148;21579;-76
2021/01/11 11:11:15;;;;;;;52.83;18.17;;;;;;;-0.42;84.39;100791.03;120885;1148;22909;-76
2021/01/11 11:13:45;;;;;;;48.40;16.83;;;;;;;-0.41;84.04;100782.41;120947;1148;22952;-75
2021/01/11 11:16:15;;;;;;;45.60;15.03;;;;;;;-0.38;84.05;100773.41;120776;1148;22972;-77
2021/01/11 11:18:45;;;;;;;43.27;15.27;;;;;;;-0.36;83.54;100773.80;120869;1148;23595;-76
2021/01/11 11:21:16;;;;;;;41.02;14.98;;;;;;;-0.34;83.70;100779.67;120879;1148;22980;-78
2021/01/11 11:23:46;;;;;;;43.57;16.07;;;;;;;-0.32;83.19;100771.05;120850;1148;23034;-76
2021/01/11 11:26:21;;;;;;;45.03;16.77;;;;;;;-0.30;83.25;100774.97;120702;1148;23091;-77
2021/01/11 11:28:51;;;;;;;43.53;15.27;;;;;;;-0.27;83.86;100776.91;120750;1148;22925;-77